sensor_id;sensor_type;location;lat;lon;timestamp;pressure;altitude;pressure_sealevel;temperature;humidity
67345;BME280;54230;52.402;6.276;2022-12-18T00:00:00;102950.0;;;-3.8;93.6
67345;BME280;54230;52.402;6.276;2022-12-18T00:05:00;102959.99999999999;;;-3.8;94.1
67345;BME280;54230;52.402;6.276;2022-12-18T00:10:00;102950.0;;;-3.9;93.3
67345;BME280;54230;52.402;6.276;2022-12-18T00:15:00;102940.00000000001;;;-4.0;93.3
67345;BME280;54230;52.402;6.276;2022-12-18T00:20:00;102930.0;;;-4.2;93.5
67345;BME280;54230;52.402;6.276;2022-12-18T00:25:00;102930.0;;;-4.3;92.9
67345;BME280;54230;52.402;6.276;2022-12-18T00:30:00;102920.0;;;-4.5;94.5
67345;BME280;54230;52.402;6.276;2022-12-18T00:35:00;102909.99999999999;;;-4.4;94.2
67345;BME280;54230;52.402;6.276;2022-12-18T00:40:00;102909.99999999999;;;-4.4;94.0
67345;BME280;54230;52.402;6.276;2022-12-18T00:45:00;102909.99999999999;;;-4.5;94.2
67345;BME280;54230;52.402;6.276;2022-12-18T00:50:00;102909.99999999999;;;-4.7;93.9
67345;BME280;54230;52.402;6.276;2022-12-18T00:55:00;102920.0;;;-4.7;94.0
67345;BME280;54230;52.402;6.276;2022-12-18T01:00:00;102909.99999999999;;;-4.8;93.7
67345;BME280;54230;52.402;6.276;2022-12-18T01:05:00;102920.0;;;-4.8;94.0
67345;BME280;54230;52.402;6.276;2022-12-18T01:10:00;102930.0;;;-4.9;93.8
67345;BME280;54230;52.402;6.276;2022-12-18T01:15:00;102930.0;;;-4.9;93.5
67345;BME280;54230;52.402;6.276;2022-12-18T01:20:00;102920.0;;;-5.0;93.5
67345;BME280;54230;52.402;6.276;2022-12-18T01:25:00;102909.99999999999;;;-5.1;93.2
67345;BME280;54230;52.402;6.276;2022-12-18T01:30:00;102909.99999999999;;;-5.2;93.2
67345;BME280;54230;52.402;6.276;2022-12-18T01:35:00;102900.0;;;-5.3;93.1
67345;BME280;54230;52.402;6.276;2022-12-18T01:40:00;102909.99999999999;;;-5.3;93.5
67345;BME280;54230;52.402;6.276;2022-12-18T01:45:06;102890.00000000001;;;-5.6;93.0
67345;BME280;54230;52.402;6.276;2022-12-18T01:50:04;102920.0;;;-5.4;92.9
67345;BME280;54230;52.402;6.276;2022-12-18T01:55:02;102909.99999999999;;;-5.4;93.1
67345;BME280;54230;52.402;6.276;2022-12-18T02:00:04;102909.99999999999;;;-5.5;93.0
67345;BME280;54230;52.402;6.276;2022-12-18T02:05:02;102920.0;;;-5.5;93.1
67345;BME280;54230;52.402;6.276;2022-12-18T02:10:05;102930.0;;;-5.4;93.1
67345;BME280;54230;52.402;6.276;2022-12-18T02:15:05;102920.0;;;-5.4;92.8
67345;BME280;54230;52.402;6.276;2022-12-18T02:20:05;102940.00000000001;;;-5.4;92.5
67345;BME280;54230;52.402;6.276;2022-12-18T02:25:13;102930.0;;;-5.4;92.8
67345;BME280;54230;52.402;6.276;2022-12-18T02:30:01;102940.00000000001;;;-5.4;92.4
67345;BME280;54230;52.402;6.276;2022-12-18T02:35:01;102920.0;;;-5.5;92.4
67345;BME280;54230;52.402;6.276;2022-12-18T02:40:02;102930.0;;;-5.4;92.1
67345;BME280;54230;52.402;6.276;2022-12-18T02:45:00;102940.00000000001;;;-5.5;91.9
67345;BME280;54230;52.402;6.276;2022-12-18T02:50:07;102930.0;;;-5.6;91.5
67345;BME280;54230;52.402;6.276;2022-12-18T02:55:08;102930.0;;;-5.6;91.2
67345;BME280;54230;52.402;6.276;2022-12-18T03:00:04;102920.0;;;-5.7;91.1
67345;BME280;54230;52.402;6.276;2022-12-18T03:05:05;102920.0;;;-5.7;91.2
67345;BME280;54230;52.402;6.276;2022-12-18T03:10:00;102909.99999999999;;;-5.7;91.1
67345;BME280;54230;52.402;6.276;2022-12-18T03:15:04;102880.0;;;-5.8;90.8
67345;BME280;54230;52.402;6.276;2022-12-18T03:20:04;102900.0;;;-5.8;90.5
67345;BME280;54230;52.402;6.276;2022-12-18T03:25:01;102900.0;;;-5.8;90.4
67345;BME280;54230;52.402;6.276;2022-12-18T03:30:03;102900.0;;;-5.8;90.4
67345;BME280;54230;52.402;6.276;2022-12-18T03:35:03;102890.00000000001;;;-5.9;90.3
67345;BME280;54230;52.402;6.276;2022-12-18T03:40:00;102890.00000000001;;;-5.8;90.4
67345;BME280;54230;52.402;6.276;2022-12-18T03:45:05;102859.99999999999;;;-6.0;90.4
67345;BME280;54230;52.402;6.276;2022-12-18T03:50:07;102870.0;;;-5.8;90.6
67345;BME280;54230;52.402;6.276;2022-12-18T03:55:01;102880.0;;;-5.8;90.4
67345;BME280;54230;52.402;6.276;2022-12-18T04:00:04;102890.00000000001;;;-5.8;90.4
67345;BME280;54230;52.402;6.276;2022-12-18T04:05:03;102890.00000000001;;;-5.8;90.1
67345;BME280;54230;52.402;6.276;2022-12-18T04:10:02;102880.0;;;-5.7;90.1
67345;BME280;54230;52.402;6.276;2022-12-18T04:15:00;102840.00000000001;;;-5.9;89.9
67345;BME280;54230;52.402;6.276;2022-12-18T04:20:00;102880.0;;;-5.8;89.9
67345;BME280;54230;52.402;6.276;2022-12-18T04:25:00;102870.0;;;-5.8;89.8
67345;BME280;54230;52.402;6.276;2022-12-18T04:30:00;102870.0;;;-5.8;89.9
67345;BME280;54230;52.402;6.276;2022-12-18T04:35:00;102859.99999999999;;;-5.8;89.9
67345;BME280;54230;52.402;6.276;2022-12-18T04:40:00;102870.0;;;-5.8;89.6
67345;BME280;54230;52.402;6.276;2022-12-18T04:45:00;102870.0;;;-5.9;89.6
67345;BME280;54230;52.402;6.276;2022-12-18T04:50:00;102870.0;;;-5.9;89.6
67345;BME280;54230;52.402;6.276;2022-12-18T04:55:00;102870.0;;;-5.9;89.3
67345;BME280;54230;52.402;6.276;2022-12-18T05:00:00;102870.0;;;-6.0;89.4
67345;BME280;54230;52.402;6.276;2022-12-18T05:05:00;102870.0;;;-6.0;89.2
67345;BME280;54230;52.402;6.276;2022-12-18T05:10:00;102870.0;;;-6.0;89.5
67345;BME280;54230;52.402;6.276;2022-12-18T05:15:00;102880.0;;;-6.0;89.3
67345;BME280;54230;52.402;6.276;2022-12-18T05:20:00;102880.0;;;-6.0;89.3
67345;BME280;54230;52.402;6.276;2022-12-18T05:25:00;102890.00000000001;;;-6.1;88.7
67345;BME280;54230;52.402;6.276;2022-12-18T05:30:00;102900.0;;;-6.2;89.0
67345;BME280;54230;52.402;6.276;2022-12-18T05:35:00;102890.00000000001;;;-6.2;88.8
67345;BME280;54230;52.402;6.276;2022-12-18T05:40:00;102900.0;;;-6.2;88.7
67345;BME280;54230;52.402;6.276;2022-12-18T05:45:00;102909.99999999999;;;-6.2;88.7
67345;BME280;54230;52.402;6.276;2022-12-18T05:50:00;102920.0;;;-6.3;88.1
67345;BME280;54230;52.402;6.276;2022-12-18T05:55:00;102920.0;;;-6.3;88.1
67345;BME280;54230;52.402;6.276;2022-12-18T06:00:00;102920.0;;;-6.3;88.3
67345;BME280;54230;52.402;6.276;2022-12-18T06:05:00;102930.0;;;-6.4;88.3
67345;BME280;54230;52.402;6.276;2022-12-18T06:10:00;102920.0;;;-6.4;88.4
67345;BME280;54230;52.402;6.276;2022-12-18T06:15:00;102920.0;;;-6.4;88.4
67345;BME280;54230;52.402;6.276;2022-12-18T06:20:00;102909.99999999999;;;-6.4;88.7
67345;BME280;54230;52.402;6.276;2022-12-18T06:25:00;102909.99999999999;;;-6.3;88.9
67345;BME280;54230;52.402;6.276;2022-12-18T06:30:00;102900.0;;;-6.3;88.7
67345;BME280;54230;52.402;6.276;2022-12-18T06:35:00;102890.00000000001;;;-6.3;88.9
67345;BME280;54230;52.402;6.276;2022-12-18T06:40:00;102890.00000000001;;;-6.3;88.8
67345;BME280;54230;52.402;6.276;2022-12-18T06:45:00;102890.00000000001;;;-6.3;88.8
67345;BME280;54230;52.402;6.276;2022-12-18T06:50:00;102880.0;;;-6.2;89.0
67345;BME280;54230;52.402;6.276;2022-12-18T06:55:00;102870.0;;;-6.2;89.1
67345;BME280;54230;52.402;6.276;2022-12-18T07:00:00;102859.99999999999;;;-6.2;88.8
67345;BME280;54230;52.402;6.276;2022-12-18T07:05:00;102859.99999999999;;;-6.2;88.9
67345;BME280;54230;52.402;6.276;2022-12-18T07:10:00;102850.0;;;-6.2;88.9
67345;BME280;54230;52.402;6.276;2022-12-18T07:15:00;102840.00000000001;;;-6.2;88.8
67345;BME280;54230;52.402;6.276;2022-12-18T07:20:00;102840.00000000001;;;-6.2;88.5
67345;BME280;54230;52.402;6.276;2022-12-18T07:25:00;102840.00000000001;;;-6.2;88.8
67345;BME280;54230;52.402;6.276;2022-12-18T07:30:00;102850.0;;;-6.1;88.6
67345;BME280;54230;52.402;6.276;2022-12-18T07:35:00;102850.0;;;-6.1;88.4
67345;BME280;54230;52.402;6.276;2022-12-18T07:40:00;102859.99999999999;;;-6.1;88.5
67345;BME280;54230;52.402;6.276;2022-12-18T07:45:01;102859.99999999999;;;-6.1;87.9
67345;BME280;54230;52.402;6.276;2022-12-18T07:50:00;102859.99999999999;;;-6.1;88.1
67345;BME280;54230;52.402;6.276;2022-12-18T07:55:00;102850.0;;;-6.1;87.7
67345;BME280;54230;52.402;6.276;2022-12-18T08:00:00;102859.99999999999;;;-6.2;87.4
67345;BME280;54230;52.402;6.276;2022-12-18T08:05:00;102850.0;;;-6.3;87.2
67345;BME280;54230;52.402;6.276;2022-12-18T08:10:00;102840.00000000001;;;-6.2;87.5
67345;BME280;54230;52.402;6.276;2022-12-18T08:15:00;102820.0;;;-6.2;87.1
67345;BME280;54230;52.402;6.276;2022-12-18T08:20:00;102830.0;;;-6.1;87.3
67345;BME280;54230;52.402;6.276;2022-12-18T08:25:00;102820.0;;;-6.1;87.2
67345;BME280;54230;52.402;6.276;2022-12-18T08:30:00;102809.99999999999;;;-6.1;87.1
67345;BME280;54230;52.402;6.276;2022-12-18T08:35:00;102780.0;;;-6.2;87.0
67345;BME280;54230;52.402;6.276;2022-12-18T08:40:00;102809.99999999999;;;-5.8;87.2
67345;BME280;54230;52.402;6.276;2022-12-18T08:45:00;102809.99999999999;;;-5.8;87.2
67345;BME280;54230;52.402;6.276;2022-12-18T08:50:00;102800.0;;;-5.6;87.0
67345;BME280;54230;52.402;6.276;2022-12-18T08:55:00;102790.00000000001;;;-5.4;86.6
67345;BME280;54230;52.402;6.276;2022-12-18T09:00:00;102790.00000000001;;;-5.3;86.9
67345;BME280;54230;52.402;6.276;2022-12-18T09:05:00;102800.0;;;-5.2;86.7
67345;BME280;54230;52.402;6.276;2022-12-18T09:10:00;102770.0;;;-5.3;86.8
67345;BME280;54230;52.402;6.276;2022-12-18T09:15:00;102800.0;;;-4.9;86.7
67345;BME280;54230;52.402;6.276;2022-12-18T09:20:00;102800.0;;;-4.6;86.3
67345;BME280;54230;52.402;6.276;2022-12-18T09:25:00;102800.0;;;-4.3;85.7
67345;BME280;54230;52.402;6.276;2022-12-18T09:30:00;102800.0;;;-4.0;85.2
67345;BME280;54230;52.402;6.276;2022-12-18T09:35:00;102800.0;;;-3.8;84.7
67345;BME280;54230;52.402;6.276;2022-12-18T09:40:00;102800.0;;;-3.7;84.3
67345;BME280;54230;52.402;6.276;2022-12-18T09:45:01;102800.0;;;-3.7;84.3
67345;BME280;54230;52.402;6.276;2022-12-18T09:50:02;102820.0;;;-3.6;84.1
67345;BME280;54230;52.402;6.276;2022-12-18T09:55:04;102780.0;;;-3.7;83.8
67345;BME280;54230;52.402;6.276;2022-12-18T10:00:04;102800.0;;;-3.4;83.8
67345;BME280;54230;52.402;6.276;2022-12-18T10:05:09;102790.00000000001;;;-3.2;83.4
67345;BME280;54230;52.402;6.276;2022-12-18T10:10:03;102720.0;;;-3.4;82.8
67345;BME280;54230;52.402;6.276;2022-12-18T10:15:06;102730.0;;;-3.0;82.6
67345;BME280;54230;52.402;6.276;2022-12-18T10:20:03;102709.99999999999;;;-2.9;81.9
67345;BME280;54230;52.402;6.276;2022-12-18T10:25:03;102709.99999999999;;;-2.8;81.2
67345;BME280;54230;52.402;6.276;2022-12-18T10:30:04;102690.00000000001;;;-2.6;81.1
67345;BME280;54230;52.402;6.276;2022-12-18T10:35:00;102700.0;;;-2.5;80.3
67345;BME280;54230;52.402;6.276;2022-12-18T10:40:10;102700.0;;;-2.3;80.4
67345;BME280;54230;52.402;6.276;2022-12-18T10:45:02;102690.00000000001;;;-2.3;80.3
67345;BME280;54230;52.402;6.276;2022-12-18T10:50:00;102700.0;;;-2.2;80.1
67345;BME280;54230;52.402;6.276;2022-12-18T10:55:03;102680.0;;;-2.1;78.5
67345;BME280;54230;52.402;6.276;2022-12-18T11:00:21;102680.0;;;-1.9;78.4
67345;BME280;54230;52.402;6.276;2022-12-18T11:05:01;102659.99999999999;;;-1.8;77.8
67345;BME280;54230;52.402;6.276;2022-12-18T11:10:04;102659.99999999999;;;-1.7;77.7
67345;BME280;54230;52.402;6.276;2022-12-18T11:15:00;102670.0;;;-1.6;77.9
67345;BME280;54230;52.402;6.276;2022-12-18T11:20:03;102670.0;;;-1.5;77.6
67345;BME280;54230;52.402;6.276;2022-12-18T11:25:01;102680.0;;;-1.5;77.7
67345;BME280;54230;52.402;6.276;2022-12-18T11:30:08;102680.0;;;-1.4;78.0
67345;BME280;54230;52.402;6.276;2022-12-18T11:35:08;102670.0;;;-1.2;78.2
67345;BME280;54230;52.402;6.276;2022-12-18T11:40:03;102650.0;;;-1.2;78.2
67345;BME280;54230;52.402;6.276;2022-12-18T11:45:21;102640.00000000001;;;-1.1;77.9
67345;BME280;54230;52.402;6.276;2022-12-18T11:50:02;102640.00000000001;;;-1.1;78.0
67345;BME280;54230;52.402;6.276;2022-12-18T11:55:04;102630.0;;;-1.1;78.1
67345;BME280;54230;52.402;6.276;2022-12-18T12:00:04;102620.0;;;-1.0;78.5
67345;BME280;54230;52.402;6.276;2022-12-18T12:05:10;102620.0;;;-1.0;78.5
67345;BME280;54230;52.402;6.276;2022-12-18T12:10:09;102609.99999999999;;;-1.1;78.5
67345;BME280;54230;52.402;6.276;2022-12-18T12:15:06;102600.0;;;-1.0;78.7
67345;BME280;54230;52.402;6.276;2022-12-18T12:20:07;102590.00000000001;;;-0.9;78.4
67345;BME280;54230;52.402;6.276;2022-12-18T12:25:12;102570.0;;;-0.9;78.2
67345;BME280;54230;52.402;6.276;2022-12-18T12:30:04;102559.99999999999;;;-0.9;77.3
67345;BME280;54230;52.402;6.276;2022-12-18T12:35:06;102559.99999999999;;;-0.9;77.4
67345;BME280;54230;52.402;6.276;2022-12-18T12:40:01;102559.99999999999;;;-0.9;76.9
67345;BME280;54230;52.402;6.276;2022-12-18T12:45:03;102540.00000000001;;;-1.0;76.6
67345;BME280;54230;52.402;6.276;2022-12-18T12:50:03;102550.0;;;-0.9;76.7
67345;BME280;54230;52.402;6.276;2022-12-18T12:55:01;102540.00000000001;;;-0.8;76.7
67345;BME280;54230;52.402;6.276;2022-12-18T13:00:03;102530.0;;;-0.9;76.6
67345;BME280;54230;52.402;6.276;2022-12-18T13:05:04;102520.0;;;-0.8;76.7
67345;BME280;54230;52.402;6.276;2022-12-18T13:10:11;102520.0;;;-0.8;76.6
67345;BME280;54230;52.402;6.276;2022-12-18T13:15:12;102509.99999999999;;;-0.9;76.7
67345;BME280;54230;52.402;6.276;2022-12-18T13:20:10;102509.99999999999;;;-0.8;76.8
67345;BME280;54230;52.402;6.276;2022-12-18T13:25:00;102490.00000000001;;;-0.9;77.2
67345;BME280;54230;52.402;6.276;2022-12-18T13:30:00;102509.99999999999;;;-0.7;76.5
67345;BME280;54230;52.402;6.276;2022-12-18T13:40:00;102490.00000000001;;;-0.7;76.4
67345;BME280;54230;52.402;6.276;2022-12-18T13:45:00;102480.0;;;-0.7;76.5
67345;BME280;54230;52.402;6.276;2022-12-18T13:50:03;102480.0;;;-0.7;77.0
67345;BME280;54230;52.402;6.276;2022-12-18T13:55:04;102480.0;;;-0.7;77.3
67345;BME280;54230;52.402;6.276;2022-12-18T14:00:17;102480.0;;;-0.7;77.3
67345;BME280;54230;52.402;6.276;2022-12-18T14:05:00;102470.0;;;-0.7;77.3
67345;BME280;54230;52.402;6.276;2022-12-18T14:10:00;102459.99999999999;;;-0.7;77.1
67345;BME280;54230;52.402;6.276;2022-12-18T14:15:00;102470.0;;;-0.7;77.2
67345;BME280;54230;52.402;6.276;2022-12-18T14:20:00;102470.0;;;-0.8;77.0
67345;BME280;54230;52.402;6.276;2022-12-18T14:25:10;102470.0;;;-0.7;77.4
67345;BME280;54230;52.402;6.276;2022-12-18T14:30:00;102459.99999999999;;;-0.8;77.5
67345;BME280;54230;52.402;6.276;2022-12-18T14:35:12;102450.0;;;-0.8;77.5
67345;BME280;54230;52.402;6.276;2022-12-18T14:40:04;102440.00000000001;;;-0.8;77.4
67345;BME280;54230;52.402;6.276;2022-12-18T14:50:00;102420.0;;;-0.8;77.6
67345;BME280;54230;52.402;6.276;2022-12-18T14:55:00;102400.0;;;-0.9;77.5
67345;BME280;54230;52.402;6.276;2022-12-18T15:00:04;102400.0;;;-0.8;77.8
67345;BME280;54230;52.402;6.276;2022-12-18T15:05:02;102400.0;;;-0.9;77.9
67345;BME280;54230;52.402;6.276;2022-12-18T15:10:04;102380.0;;;-0.9;78.1
67345;BME280;54230;52.402;6.276;2022-12-18T15:15:00;102380.0;;;-1.0;78.1
67345;BME280;54230;52.402;6.276;2022-12-18T15:20:03;102370.0;;;-1.0;78.0
67345;BME280;54230;52.402;6.276;2022-12-18T15:25:01;102350.0;;;-1.0;78.1
67345;BME280;54230;52.402;6.276;2022-12-18T15:35:03;102360.0;;;-1.0;78.0
67345;BME280;54230;52.402;6.276;2022-12-18T15:40:00;102360.0;;;-1.0;77.8
67345;BME280;54230;52.402;6.276;2022-12-18T15:45:00;102360.0;;;-1.0;77.8
67345;BME280;54230;52.402;6.276;2022-12-18T15:50:00;102360.0;;;-1.0;77.5
67345;BME280;54230;52.402;6.276;2022-12-18T15:55:00;102350.0;;;-0.9;77.6
67345;BME280;54230;52.402;6.276;2022-12-18T16:00:00;102340.0;;;-0.9;77.8
67345;BME280;54230;52.402;6.276;2022-12-18T16:05:00;102330.0;;;-0.9;77.2
67345;BME280;54230;52.402;6.276;2022-12-18T16:10:00;102330.0;;;-0.9;77.6
67345;BME280;54230;52.402;6.276;2022-12-18T16:15:00;102340.0;;;-0.9;77.2
67345;BME280;54230;52.402;6.276;2022-12-18T16:20:00;102340.0;;;-0.9;77.9
67345;BME280;54230;52.402;6.276;2022-12-18T16:25:00;102330.0;;;-0.9;77.7
67345;BME280;54230;52.402;6.276;2022-12-18T16:30:00;102320.0;;;-0.9;77.2
67345;BME280;54230;52.402;6.276;2022-12-18T16:35:01;102320.0;;;-0.9;77.3
67345;BME280;54230;52.402;6.276;2022-12-18T16:40:00;102300.0;;;-0.8;77.2
67345;BME280;54230;52.402;6.276;2022-12-18T16:45:00;102290.0;;;-0.9;77.1
67345;BME280;54230;52.402;6.276;2022-12-18T16:50:00;102290.0;;;-0.9;77.1
67345;BME280;54230;52.402;6.276;2022-12-18T16:55:00;102270.0;;;-0.9;77.1
67345;BME280;54230;52.402;6.276;2022-12-18T17:00:00;102280.0;;;-0.9;76.8
67345;BME280;54230;52.402;6.276;2022-12-18T17:05:00;102280.0;;;-0.9;77.0
67345;BME280;54230;52.402;6.276;2022-12-18T17:10:00;102280.0;;;-0.9;76.9
67345;BME280;54230;52.402;6.276;2022-12-18T17:15:00;102240.0;;;-0.9;76.8
67345;BME280;54230;52.402;6.276;2022-12-18T17:20:00;102250.0;;;-0.9;76.8
67345;BME280;54230;52.402;6.276;2022-12-18T17:25:00;102230.0;;;-0.9;76.5
67345;BME280;54230;52.402;6.276;2022-12-18T17:30:00;102230.0;;;-0.8;76.4
67345;BME280;54230;52.402;6.276;2022-12-18T17:35:00;102230.0;;;-0.8;76.1
67345;BME280;54230;52.402;6.276;2022-12-18T17:40:00;102230.0;;;-0.8;76.2
67345;BME280;54230;52.402;6.276;2022-12-18T17:45:00;102240.0;;;-0.7;75.9
67345;BME280;54230;52.402;6.276;2022-12-18T17:50:00;102230.0;;;-0.7;75.7
67345;BME280;54230;52.402;6.276;2022-12-18T17:55:00;102230.0;;;-0.6;75.5
67345;BME280;54230;52.402;6.276;2022-12-18T18:00:00;102230.0;;;-0.6;75.7
67345;BME280;54230;52.402;6.276;2022-12-18T18:05:00;102220.0;;;-0.6;75.5
67345;BME280;54230;52.402;6.276;2022-12-18T18:10:00;102230.0;;;-0.6;75.6
67345;BME280;54230;52.402;6.276;2022-12-18T18:15:00;102220.0;;;-0.6;75.6
67345;BME280;54230;52.402;6.276;2022-12-18T18:20:00;102230.0;;;-0.6;75.9
67345;BME280;54230;52.402;6.276;2022-12-18T18:25:00;102230.0;;;-0.6;75.7
67345;BME280;54230;52.402;6.276;2022-12-18T18:30:00;102240.0;;;-0.6;75.6
67345;BME280;54230;52.402;6.276;2022-12-18T18:35:00;102230.0;;;-0.6;76.4
67345;BME280;54230;52.402;6.276;2022-12-18T18:40:00;102220.0;;;-0.6;75.7
67345;BME280;54230;52.402;6.276;2022-12-18T18:45:00;102230.0;;;-0.5;76.1
67345;BME280;54230;52.402;6.276;2022-12-18T18:50:00;102230.0;;;-0.6;75.7
67345;BME280;54230;52.402;6.276;2022-12-18T18:55:00;102240.0;;;-0.5;75.8
67345;BME280;54230;52.402;6.276;2022-12-18T19:00:00;102230.0;;;-0.5;75.6
67345;BME280;54230;52.402;6.276;2022-12-18T19:05:00;102230.0;;;-0.5;75.4
67345;BME280;54230;52.402;6.276;2022-12-18T19:10:00;102210.0;;;-0.6;75.8
67345;BME280;54230;52.402;6.276;2022-12-18T19:15:00;102220.0;;;-0.5;75.8
67345;BME280;54230;52.402;6.276;2022-12-18T19:20:00;102210.0;;;-0.5;75.5
67345;BME280;54230;52.402;6.276;2022-12-18T19:25:00;102200.0;;;-0.4;75.7
67345;BME280;54230;52.402;6.276;2022-12-18T19:30:00;102200.0;;;-0.4;75.8
67345;BME280;54230;52.402;6.276;2022-12-18T19:35:00;102190.0;;;-0.5;75.6
67345;BME280;54230;52.402;6.276;2022-12-18T19:40:00;102170.0;;;-0.6;75.6
67345;BME280;54230;52.402;6.276;2022-12-18T19:45:00;102190.0;;;-0.4;75.6
67345;BME280;54230;52.402;6.276;2022-12-18T19:50:00;102190.0;;;-0.4;75.8
67345;BME280;54230;52.402;6.276;2022-12-18T19:55:00;102190.0;;;-0.4;75.8
67345;BME280;54230;52.402;6.276;2022-12-18T20:00:00;102190.0;;;-0.4;76.0
67345;BME280;54230;52.402;6.276;2022-12-18T20:05:00;102190.0;;;-0.4;76.1
67345;BME280;54230;52.402;6.276;2022-12-18T20:10:00;102180.0;;;-0.4;76.1
67345;BME280;54230;52.402;6.276;2022-12-18T20:15:00;102180.0;;;-0.4;76.1
67345;BME280;54230;52.402;6.276;2022-12-18T20:20:00;102190.0;;;-0.3;76.2
67345;BME280;54230;52.402;6.276;2022-12-18T20:25:00;102180.0;;;-0.3;76.2
67345;BME280;54230;52.402;6.276;2022-12-18T20:30:00;102180.0;;;-0.3;76.3
67345;BME280;54230;52.402;6.276;2022-12-18T20:35:00;102180.0;;;-0.3;76.5
67345;BME280;54230;52.402;6.276;2022-12-18T20:40:00;102180.0;;;-0.2;76.3
67345;BME280;54230;52.402;6.276;2022-12-18T20:45:00;102180.0;;;-0.2;76.6
67345;BME280;54230;52.402;6.276;2022-12-18T20:50:00;102170.0;;;-0.2;77.0
67345;BME280;54230;52.402;6.276;2022-12-18T20:55:04;102170.0;;;-0.1;77.3
67345;BME280;54230;52.402;6.276;2022-12-18T21:00:00;102160.0;;;-0.2;77.7
67345;BME280;54230;52.402;6.276;2022-12-18T21:05:00;102160.0;;;-0.2;78.2
67345;BME280;54230;52.402;6.276;2022-12-18T21:10:04;102170.0;;;-0.2;78.6
67345;BME280;54230;52.402;6.276;2022-12-18T21:15:00;102170.0;;;-0.2;79.7
67345;BME280;54230;52.402;6.276;2022-12-18T21:20:00;102180.0;;;-0.2;81.2
67345;BME280;54230;52.402;6.276;2022-12-18T21:25:00;102170.0;;;-0.3;82.2
67345;BME280;54230;52.402;6.276;2022-12-18T21:30:00;102160.0;;;-0.2;82.6
67345;BME280;54230;52.402;6.276;2022-12-18T21:35:00;102140.0;;;-0.4;83.4
67345;BME280;54230;52.402;6.276;2022-12-18T21:40:00;102150.0;;;-0.3;84.3
67345;BME280;54230;52.402;6.276;2022-12-18T21:45:00;102140.0;;;-0.3;84.5
67345;BME280;54230;52.402;6.276;2022-12-18T21:50:00;102140.0;;;-0.4;85.2
67345;BME280;54230;52.402;6.276;2022-12-18T21:55:00;102130.0;;;-0.3;85.1
67345;BME280;54230;52.402;6.276;2022-12-18T22:00:00;102110.0;;;-0.4;85.5
67345;BME280;54230;52.402;6.276;2022-12-18T22:05:00;102120.0;;;-0.3;86.3
67345;BME280;54230;52.402;6.276;2022-12-18T22:10:00;102080.0;;;-0.5;86.6
67345;BME280;54230;52.402;6.276;2022-12-18T22:15:01;102100.0;;;-0.4;87.4
67345;BME280;54230;52.402;6.276;2022-12-18T22:20:00;102090.0;;;-0.4;87.9
67345;BME280;54230;52.402;6.276;2022-12-18T22:25:00;102090.0;;;-0.4;88.2
67345;BME280;54230;52.402;6.276;2022-12-18T22:30:00;102080.0;;;-0.3;88.5
67345;BME280;54230;52.402;6.276;2022-12-18T22:35:02;102060.0;;;-0.4;88.7
67345;BME280;54230;52.402;6.276;2022-12-18T22:40:00;102070.0;;;-0.3;89.3
67345;BME280;54230;52.402;6.276;2022-12-18T22:45:00;102060.0;;;-0.3;89.6
67345;BME280;54230;52.402;6.276;2022-12-18T22:50:00;102040.0;;;-0.3;90.2
67345;BME280;54230;52.402;6.276;2022-12-18T22:55:00;102050.0;;;-0.2;90.6
67345;BME280;54230;52.402;6.276;2022-12-18T23:00:00;102030.0;;;-0.3;91.7
67345;BME280;54230;52.402;6.276;2022-12-18T23:05:00;102030.0;;;-0.2;92.3
67345;BME280;54230;52.402;6.276;2022-12-18T23:10:00;102020.0;;;-0.3;92.8
67345;BME280;54230;52.402;6.276;2022-12-18T23:15:00;102010.0;;;-0.2;93.0
67345;BME280;54230;52.402;6.276;2022-12-18T23:20:00;102000.0;;;-0.3;93.6
67345;BME280;54230;52.402;6.276;2022-12-18T23:25:00;101990.0;;;-0.2;94.0
67345;BME280;54230;52.402;6.276;2022-12-18T23:30:00;101950.0;;;-0.3;93.6
67345;BME280;54230;52.402;6.276;2022-12-18T23:35:00;101960.0;;;-0.2;93.9
67345;BME280;54230;52.402;6.276;2022-12-18T23:40:00;101940.0;;;-0.2;94.3
67345;BME280;54230;52.402;6.276;2022-12-18T23:45:00;101920.0;;;-0.3;94.2
67345;BME280;54230;52.402;6.276;2022-12-18T23:50:00;101930.0;;;-0.2;94.6
67345;BME280;54230;52.402;6.276;2022-12-18T23:55:00;101920.0;;;-0.1;94.8
